sensor_id;sensor_type;location;lat;lon;timestamp;P1;durP1;ratioP1;P2;durP2;ratioP2
15466;SDS011;7834;49.452;11.056;2023-09-12T00:00:03;22.77;;;17.57;;
15466;SDS011;7834;49.452;11.056;2023-09-12T00:02:37;21.52;;;17.10;;
15466;SDS011;7834;49.452;11.056;2023-09-12T00:05:05;22.33;;;17.52;;
15466;SDS011;7834;49.452;11.056;2023-09-12T00:07:31;19.85;;;17.35;;
15466;SDS011;7834;49.452;11.056;2023-09-12T00:09:56;18.67;;;16.65;;
15466;SDS011;7834;49.452;11.056;2023-09-12T00:12:22;21.17;;;17.80;;
15466;SDS011;7834;49.452;11.056;2023-09-12T00:14:48;22.98;;;17.30;;
15466;SDS011;7834;49.452;11.056;2023-09-12T00:17:13;22.60;;;17.55;;
15466;SDS011;7834;49.452;11.056;2023-09-12T00:19:39;21.43;;;16.90;;
15466;SDS011;7834;49.452;11.056;2023-09-12T00:22:04;24.30;;;18.63;;
15466;SDS011;7834;49.452;11.056;2023-09-12T00:24:30;23.53;;;18.77;;
15466;SDS011;7834;49.452;11.056;2023-09-12T00:26:55;25.57;;;18.13;;
15466;SDS011;7834;49.452;11.056;2023-09-12T00:29:21;23.10;;;18.73;;
15466;SDS011;7834;49.452;11.056;2023-09-12T00:31:46;26.63;;;18.73;;
15466;SDS011;7834;49.452;11.056;2023-09-12T00:34:21;21.23;;;17.95;;
15466;SDS011;7834;49.452;11.056;2023-09-12T00:36:46;24.70;;;18.10;;
15466;SDS011;7834;49.452;11.056;2023-09-12T00:39:12;19.55;;;17.40;;
15466;SDS011;7834;49.452;11.056;2023-09-12T00:41:37;24.17;;;17.23;;
15466;SDS011;7834;49.452;11.056;2023-09-12T00:44:03;23.37;;;17.40;;
15466;SDS011;7834;49.452;11.056;2023-09-12T00:46:28;19.70;;;17.10;;
15466;SDS011;7834;49.452;11.056;2023-09-12T00:48:55;23.33;;;17.42;;
15466;SDS011;7834;49.452;11.056;2023-09-12T00:51:22;20.37;;;16.90;;
15466;SDS011;7834;49.452;11.056;2023-09-12T00:53:49;21.88;;;17.10;;
15466;SDS011;7834;49.452;11.056;2023-09-12T00:56:15;20.93;;;16.40;;
15466;SDS011;7834;49.452;11.056;2023-09-12T00:58:40;21.45;;;16.15;;
15466;SDS011;7834;49.452;11.056;2023-09-12T01:01:06;19.70;;;16.35;;
15466;SDS011;7834;49.452;11.056;2023-09-12T01:03:32;20.73;;;16.83;;
15466;SDS011;7834;49.452;11.056;2023-09-12T01:05:58;20.50;;;16.23;;
15466;SDS011;7834;49.452;11.056;2023-09-12T01:08:24;18.20;;;16.30;;
15466;SDS011;7834;49.452;11.056;2023-09-12T01:10:50;20.37;;;16.50;;
15466;SDS011;7834;49.452;11.056;2023-09-12T01:13:18;21.13;;;17.17;;
15466;SDS011;7834;49.452;11.056;2023-09-12T01:15:44;19.30;;;16.90;;
15466;SDS011;7834;49.452;11.056;2023-09-12T01:18:09;21.10;;;16.95;;
15466;SDS011;7834;49.452;11.056;2023-09-12T01:20:36;19.98;;;16.52;;
15466;SDS011;7834;49.452;11.056;2023-09-12T01:23:26;19.88;;;17.10;;
15466;SDS011;7834;49.452;11.056;2023-09-12T01:28:21;18.90;;;16.35;;
15466;SDS011;7834;49.452;11.056;2023-09-12T01:30:48;18.88;;;16.83;;
15466;SDS011;7834;49.452;11.056;2023-09-12T01:33:13;19.58;;;15.73;;
15466;SDS011;7834;49.452;11.056;2023-09-12T01:35:40;20.60;;;16.40;;
15466;SDS011;7834;49.452;11.056;2023-09-12T01:38:05;17.98;;;15.65;;
15466;SDS011;7834;49.452;11.056;2023-09-12T01:40:50;19.75;;;15.57;;
15466;SDS011;7834;49.452;11.056;2023-09-12T01:43:18;17.25;;;15.40;;
15466;SDS011;7834;49.452;11.056;2023-09-12T01:45:44;18.20;;;15.85;;
15466;SDS011;7834;49.452;11.056;2023-09-12T01:48:11;20.25;;;16.33;;
15466;SDS011;7834;49.452;11.056;2023-09-12T01:50:37;20.95;;;16.83;;
15466;SDS011;7834;49.452;11.056;2023-09-12T01:53:03;18.55;;;16.50;;
15466;SDS011;7834;49.452;11.056;2023-09-12T01:55:29;20.52;;;17.23;;
15466;SDS011;7834;49.452;11.056;2023-09-12T01:57:55;22.52;;;17.40;;
15466;SDS011;7834;49.452;11.056;2023-09-12T02:00:23;20.00;;;17.40;;
15466;SDS011;7834;49.452;11.056;2023-09-12T02:02:48;18.70;;;16.70;;
15466;SDS011;7834;49.452;11.056;2023-09-12T02:05:18;21.33;;;18.02;;
15466;SDS011;7834;49.452;11.056;2023-09-12T02:07:45;24.38;;;18.88;;
15466;SDS011;7834;49.452;11.056;2023-09-12T02:10:11;23.85;;;18.48;;
15466;SDS011;7834;49.452;11.056;2023-09-12T02:12:37;21.93;;;18.77;;
15466;SDS011;7834;49.452;11.056;2023-09-12T02:15:03;21.20;;;18.90;;
15466;SDS011;7834;49.452;11.056;2023-09-12T02:17:29;22.70;;;18.25;;
15466;SDS011;7834;49.452;11.056;2023-09-12T02:19:55;23.53;;;17.30;;
15466;SDS011;7834;49.452;11.056;2023-09-12T02:22:20;20.75;;;18.08;;
15466;SDS011;7834;49.452;11.056;2023-09-12T02:24:46;21.60;;;18.80;;
15466;SDS011;7834;49.452;11.056;2023-09-12T02:27:11;23.20;;;19.43;;
15466;SDS011;7834;49.452;11.056;2023-09-12T02:29:38;21.33;;;18.87;;
15466;SDS011;7834;49.452;11.056;2023-09-12T02:32:04;22.60;;;18.30;;
15466;SDS011;7834;49.452;11.056;2023-09-12T02:34:29;20.13;;;18.03;;
15466;SDS011;7834;49.452;11.056;2023-09-12T02:36:55;21.60;;;18.27;;
15466;SDS011;7834;49.452;11.056;2023-09-12T02:39:20;23.47;;;18.60;;
15466;SDS011;7834;49.452;11.056;2023-09-12T02:41:46;22.38;;;18.95;;
15466;SDS011;7834;49.452;11.056;2023-09-12T02:44:11;23.27;;;19.15;;
15466;SDS011;7834;49.452;11.056;2023-09-12T02:46:37;21.37;;;19.07;;
15466;SDS011;7834;49.452;11.056;2023-09-12T02:49:03;21.20;;;18.90;;
15466;SDS011;7834;49.452;11.056;2023-09-12T02:51:28;23.80;;;19.30;;
15466;SDS011;7834;49.452;11.056;2023-09-12T02:53:54;22.58;;;19.58;;
15466;SDS011;7834;49.452;11.056;2023-09-12T02:56:20;23.30;;;19.92;;
15466;SDS011;7834;49.452;11.056;2023-09-12T02:58:46;22.40;;;19.80;;
15466;SDS011;7834;49.452;11.056;2023-09-12T03:01:18;22.08;;;19.27;;
15466;SDS011;7834;49.452;11.056;2023-09-12T03:03:47;23.27;;;19.98;;
15466;SDS011;7834;49.452;11.056;2023-09-12T03:06:14;22.65;;;19.88;;
15466;SDS011;7834;49.452;11.056;2023-09-12T03:08:40;22.80;;;20.33;;
15466;SDS011;7834;49.452;11.056;2023-09-12T03:11:06;22.48;;;20.17;;
15466;SDS011;7834;49.452;11.056;2023-09-12T03:13:33;24.50;;;20.00;;
15466;SDS011;7834;49.452;11.056;2023-09-12T03:16:02;22.92;;;20.02;;
15466;SDS011;7834;49.452;11.056;2023-09-12T03:18:28;22.90;;;20.17;;
15466;SDS011;7834;49.452;11.056;2023-09-12T03:20:54;23.50;;;20.98;;
15466;SDS011;7834;49.452;11.056;2023-09-12T03:23:20;23.13;;;20.63;;
15466;SDS011;7834;49.452;11.056;2023-09-12T03:25:46;22.90;;;20.60;;
15466;SDS011;7834;49.452;11.056;2023-09-12T03:28:13;23.60;;;19.85;;
15466;SDS011;7834;49.452;11.056;2023-09-12T03:30:38;22.93;;;20.50;;
15466;SDS011;7834;49.452;11.056;2023-09-12T03:33:05;21.92;;;19.27;;
15466;SDS011;7834;49.452;11.056;2023-09-12T03:35:31;24.93;;;19.20;;
15466;SDS011;7834;49.452;11.056;2023-09-12T03:37:57;22.08;;;18.35;;
15466;SDS011;7834;49.452;11.056;2023-09-12T03:40:23;22.43;;;18.23;;
15466;SDS011;7834;49.452;11.056;2023-09-12T03:42:48;22.10;;;18.23;;
15466;SDS011;7834;49.452;11.056;2023-09-12T03:45:14;23.33;;;17.70;;
15466;SDS011;7834;49.452;11.056;2023-09-12T03:47:39;24.90;;;17.63;;
15466;SDS011;7834;49.452;11.056;2023-09-12T03:50:05;22.00;;;16.95;;
15466;SDS011;7834;49.452;11.056;2023-09-12T03:52:31;21.23;;;16.10;;
15466;SDS011;7834;49.452;11.056;2023-09-12T03:54:56;20.50;;;16.67;;
15466;SDS011;7834;49.452;11.056;2023-09-12T03:57:22;22.33;;;16.80;;
15466;SDS011;7834;49.452;11.056;2023-09-12T03:59:48;25.53;;;17.90;;
15466;SDS011;7834;49.452;11.056;2023-09-12T04:02:14;22.60;;;18.33;;
15466;SDS011;7834;49.452;11.056;2023-09-12T04:04:39;23.30;;;19.03;;
15466;SDS011;7834;49.452;11.056;2023-09-12T04:07:05;23.95;;;19.27;;
15466;SDS011;7834;49.452;11.056;2023-09-12T04:09:31;22.50;;;18.73;;
15466;SDS011;7834;49.452;11.056;2023-09-12T04:11:57;22.10;;;18.67;;
15466;SDS011;7834;49.452;11.056;2023-09-12T04:14:22;23.45;;;17.90;;
15466;SDS011;7834;49.452;11.056;2023-09-12T04:16:48;23.33;;;16.27;;
15466;SDS011;7834;49.452;11.056;2023-09-12T04:19:14;28.97;;;16.63;;
15466;SDS011;7834;49.452;11.056;2023-09-12T04:21:39;20.02;;;15.90;;
15466;SDS011;7834;49.452;11.056;2023-09-12T04:24:05;20.60;;;16.63;;
15466;SDS011;7834;49.452;11.056;2023-09-12T04:26:31;21.67;;;16.75;;
15466;SDS011;7834;49.452;11.056;2023-09-12T04:28:56;21.10;;;16.13;;
15466;SDS011;7834;49.452;11.056;2023-09-12T04:31:22;24.50;;;16.70;;
15466;SDS011;7834;49.452;11.056;2023-09-12T04:33:50;20.63;;;16.55;;
15466;SDS011;7834;49.452;11.056;2023-09-12T04:36:15;22.85;;;17.05;;
15466;SDS011;7834;49.452;11.056;2023-09-12T04:38:42;20.37;;;17.27;;
15466;SDS011;7834;49.452;11.056;2023-09-12T04:41:08;22.02;;;17.38;;
15466;SDS011;7834;49.452;11.056;2023-09-12T04:43:34;22.13;;;17.40;;
15466;SDS011;7834;49.452;11.056;2023-09-12T04:45:59;23.85;;;17.70;;
15466;SDS011;7834;49.452;11.056;2023-09-12T04:48:25;22.77;;;17.05;;
15466;SDS011;7834;49.452;11.056;2023-09-12T04:50:50;21.03;;;17.07;;
15466;SDS011;7834;49.452;11.056;2023-09-12T04:53:16;19.50;;;17.17;;
15466;SDS011;7834;49.452;11.056;2023-09-12T04:55:41;21.15;;;17.55;;
15466;SDS011;7834;49.452;11.056;2023-09-12T04:58:07;18.63;;;16.20;;
15466;SDS011;7834;49.452;11.056;2023-09-12T05:00:33;19.50;;;16.53;;
15466;SDS011;7834;49.452;11.056;2023-09-12T05:02:59;21.98;;;17.30;;
15466;SDS011;7834;49.452;11.056;2023-09-12T05:05:24;19.85;;;16.45;;
15466;SDS011;7834;49.452;11.056;2023-09-12T05:07:50;20.95;;;16.02;;
15466;SDS011;7834;49.452;11.056;2023-09-12T05:10:18;18.55;;;16.15;;
15466;SDS011;7834;49.452;11.056;2023-09-12T05:12:47;24.63;;;16.30;;
15466;SDS011;7834;49.452;11.056;2023-09-12T05:15:13;20.27;;;15.75;;
15466;SDS011;7834;49.452;11.056;2023-09-12T05:17:39;19.33;;;15.80;;
15466;SDS011;7834;49.452;11.056;2023-09-12T05:20:04;19.97;;;16.00;;
15466;SDS011;7834;49.452;11.056;2023-09-12T05:22:30;19.90;;;14.98;;
15466;SDS011;7834;49.452;11.056;2023-09-12T05:24:56;18.13;;;14.97;;
15466;SDS011;7834;49.452;11.056;2023-09-12T05:27:21;18.80;;;14.97;;
15466;SDS011;7834;49.452;11.056;2023-09-12T05:29:47;18.58;;;14.68;;
15466;SDS011;7834;49.452;11.056;2023-09-12T05:32:12;21.33;;;15.10;;
15466;SDS011;7834;49.452;11.056;2023-09-12T05:34:38;18.40;;;15.03;;
15466;SDS011;7834;49.452;11.056;2023-09-12T05:37:04;23.77;;;15.35;;
15466;SDS011;7834;49.452;11.056;2023-09-12T05:39:30;19.88;;;14.50;;
15466;SDS011;7834;49.452;11.056;2023-09-12T05:41:55;20.33;;;15.15;;
15466;SDS011;7834;49.452;11.056;2023-09-12T05:44:21;19.85;;;14.85;;
15466;SDS011;7834;49.452;11.056;2023-09-12T05:46:47;20.77;;;15.13;;
15466;SDS011;7834;49.452;11.056;2023-09-12T05:49:13;19.38;;;15.18;;
15466;SDS011;7834;49.452;11.056;2023-09-12T05:51:40;19.93;;;14.97;;
15466;SDS011;7834;49.452;11.056;2023-09-12T05:54:06;22.40;;;15.60;;
15466;SDS011;7834;49.452;11.056;2023-09-12T05:56:33;21.13;;;15.52;;
15466;SDS011;7834;49.452;11.056;2023-09-12T05:58:59;22.88;;;16.10;;
15466;SDS011;7834;49.452;11.056;2023-09-12T06:01:24;20.13;;;15.33;;
15466;SDS011;7834;49.452;11.056;2023-09-12T06:03:50;26.53;;;15.90;;
15466;SDS011;7834;49.452;11.056;2023-09-12T06:06:16;21.85;;;15.60;;
15466;SDS011;7834;49.452;11.056;2023-09-12T06:08:42;24.47;;;16.70;;
15466;SDS011;7834;49.452;11.056;2023-09-12T06:11:07;24.65;;;16.25;;
15466;SDS011;7834;49.452;11.056;2023-09-12T06:13:33;26.27;;;16.88;;
15466;SDS011;7834;49.452;11.056;2023-09-12T06:16:00;24.75;;;15.65;;
15466;SDS011;7834;49.452;11.056;2023-09-12T06:18:26;22.30;;;15.53;;
15466;SDS011;7834;49.452;11.056;2023-09-12T06:20:54;22.98;;;16.10;;
15466;SDS011;7834;49.452;11.056;2023-09-12T06:23:19;21.85;;;15.98;;
15466;SDS011;7834;49.452;11.056;2023-09-12T06:25:45;27.53;;;16.17;;
15466;SDS011;7834;49.452;11.056;2023-09-12T06:28:10;25.10;;;16.00;;
15466;SDS011;7834;49.452;11.056;2023-09-12T06:30:36;23.40;;;15.87;;
15466;SDS011;7834;49.452;11.056;2023-09-12T06:33:01;28.10;;;15.37;;
15466;SDS011;7834;49.452;11.056;2023-09-12T06:35:27;25.70;;;15.87;;
15466;SDS011;7834;49.452;11.056;2023-09-12T06:37:53;25.08;;;15.50;;
15466;SDS011;7834;49.452;11.056;2023-09-12T06:40:21;21.48;;;14.98;;
15466;SDS011;7834;49.452;11.056;2023-09-12T06:42:46;20.92;;;15.25;;
15466;SDS011;7834;49.452;11.056;2023-09-12T06:45:12;23.63;;;14.88;;
15466;SDS011;7834;49.452;11.056;2023-09-12T06:47:37;20.23;;;14.20;;
15466;SDS011;7834;49.452;11.056;2023-09-12T06:50:03;21.57;;;14.47;;
15466;SDS011;7834;49.452;11.056;2023-09-12T06:52:29;22.83;;;14.70;;
15466;SDS011;7834;49.452;11.056;2023-09-12T06:54:54;19.70;;;14.40;;
15466;SDS011;7834;49.452;11.056;2023-09-12T06:57:19;19.42;;;15.45;;
15466;SDS011;7834;49.452;11.056;2023-09-12T06:59:45;19.42;;;15.23;;
15466;SDS011;7834;49.452;11.056;2023-09-12T07:02:13;20.23;;;14.85;;
15466;SDS011;7834;49.452;11.056;2023-09-12T07:04:38;21.90;;;15.63;;
15466;SDS011;7834;49.452;11.056;2023-09-12T07:07:06;20.08;;;15.07;;
15466;SDS011;7834;49.452;11.056;2023-09-12T07:09:32;20.20;;;15.15;;
15466;SDS011;7834;49.452;11.056;2023-09-12T07:11:57;20.67;;;15.37;;
15466;SDS011;7834;49.452;11.056;2023-09-12T07:14:23;22.92;;;15.50;;
15466;SDS011;7834;49.452;11.056;2023-09-12T07:16:50;27.27;;;16.23;;
15466;SDS011;7834;49.452;11.056;2023-09-12T07:19:16;21.73;;;15.33;;
15466;SDS011;7834;49.452;11.056;2023-09-12T07:21:41;25.80;;;15.20;;
15466;SDS011;7834;49.452;11.056;2023-09-12T07:24:07;24.15;;;14.82;;
15466;SDS011;7834;49.452;11.056;2023-09-12T07:26:32;22.42;;;14.75;;
15466;SDS011;7834;49.452;11.056;2023-09-12T07:28:58;24.60;;;14.87;;
15466;SDS011;7834;49.452;11.056;2023-09-12T07:31:27;20.40;;;14.75;;
15466;SDS011;7834;49.452;11.056;2023-09-12T07:33:53;25.87;;;15.27;;
15466;SDS011;7834;49.452;11.056;2023-09-12T07:36:18;24.73;;;16.20;;
15466;SDS011;7834;49.452;11.056;2023-09-12T07:38:44;24.23;;;16.07;;
15466;SDS011;7834;49.452;11.056;2023-09-12T07:41:10;23.80;;;15.00;;
15466;SDS011;7834;49.452;11.056;2023-09-12T07:43:36;23.90;;;15.60;;
15466;SDS011;7834;49.452;11.056;2023-09-12T07:46:01;24.17;;;15.18;;
15466;SDS011;7834;49.452;11.056;2023-09-12T07:48:27;24.33;;;15.55;;
15466;SDS011;7834;49.452;11.056;2023-09-12T07:50:53;24.08;;;14.73;;
15466;SDS011;7834;49.452;11.056;2023-09-12T07:53:19;23.00;;;14.55;;
15466;SDS011;7834;49.452;11.056;2023-09-12T07:55:44;20.13;;;14.98;;
15466;SDS011;7834;49.452;11.056;2023-09-12T07:58:13;26.20;;;15.07;;
15466;SDS011;7834;49.452;11.056;2023-09-12T08:00:39;22.10;;;14.37;;
15466;SDS011;7834;49.452;11.056;2023-09-12T08:03:04;21.67;;;14.23;;
15466;SDS011;7834;49.452;11.056;2023-09-12T08:05:30;23.70;;;14.55;;
15466;SDS011;7834;49.452;11.056;2023-09-12T08:07:55;26.45;;;15.73;;
15466;SDS011;7834;49.452;11.056;2023-09-12T08:10:21;24.17;;;15.15;;
15466;SDS011;7834;49.452;11.056;2023-09-12T08:12:46;24.42;;;14.60;;
15466;SDS011;7834;49.452;11.056;2023-09-12T08:15:12;23.13;;;14.27;;
15466;SDS011;7834;49.452;11.056;2023-09-12T08:17:38;25.65;;;14.32;;
15466;SDS011;7834;49.452;11.056;2023-09-12T08:20:03;25.40;;;14.43;;
15466;SDS011;7834;49.452;11.056;2023-09-12T08:22:29;20.92;;;13.25;;
15466;SDS011;7834;49.452;11.056;2023-09-12T08:24:55;14.98;;;12.73;;
15466;SDS011;7834;49.452;11.056;2023-09-12T08:27:20;17.25;;;12.43;;
15466;SDS011;7834;49.452;11.056;2023-09-12T08:29:46;19.88;;;12.70;;
15466;SDS011;7834;49.452;11.056;2023-09-12T08:32:13;14.90;;;12.52;;
15466;SDS011;7834;49.452;11.056;2023-09-12T08:34:39;17.75;;;12.60;;
15466;SDS011;7834;49.452;11.056;2023-09-12T08:37:04;19.27;;;12.40;;
15466;SDS011;7834;49.452;11.056;2023-09-12T08:39:40;19.90;;;12.93;;
15466;SDS011;7834;49.452;11.056;2023-09-12T08:42:06;20.57;;;12.10;;
15466;SDS011;7834;49.452;11.056;2023-09-12T08:44:32;18.48;;;12.50;;
15466;SDS011;7834;49.452;11.056;2023-09-12T08:46:58;15.07;;;11.97;;
15466;SDS011;7834;49.452;11.056;2023-09-12T08:49:24;17.95;;;12.63;;
15466;SDS011;7834;49.452;11.056;2023-09-12T08:51:50;15.43;;;12.17;;
15466;SDS011;7834;49.452;11.056;2023-09-12T08:54:15;17.67;;;11.90;;
15466;SDS011;7834;49.452;11.056;2023-09-12T08:56:41;15.70;;;12.30;;
15466;SDS011;7834;49.452;11.056;2023-09-12T08:59:08;16.17;;;12.13;;
15466;SDS011;7834;49.452;11.056;2023-09-12T09:01:35;16.30;;;11.98;;
15466;SDS011;7834;49.452;11.056;2023-09-12T09:04:02;16.67;;;11.15;;
15466;SDS011;7834;49.452;11.056;2023-09-12T09:06:29;15.90;;;11.02;;
15466;SDS011;7834;49.452;11.056;2023-09-12T09:08:55;15.05;;;11.23;;
15466;SDS011;7834;49.452;11.056;2023-09-12T09:11:21;15.50;;;11.53;;
15466;SDS011;7834;49.452;11.056;2023-09-12T09:13:47;15.02;;;11.13;;
15466;SDS011;7834;49.452;11.056;2023-09-12T09:16:14;14.73;;;10.77;;
15466;SDS011;7834;49.452;11.056;2023-09-12T09:18:58;14.60;;;11.02;;
15466;SDS011;7834;49.452;11.056;2023-09-12T09:21:28;13.40;;;10.65;;
15466;SDS011;7834;49.452;11.056;2023-09-12T09:23:56;14.20;;;10.98;;
15466;SDS011;7834;49.452;11.056;2023-09-12T09:26:21;17.08;;;11.05;;
15466;SDS011;7834;49.452;11.056;2023-09-12T09:29:06;13.35;;;11.20;;
15466;SDS011;7834;49.452;11.056;2023-09-12T09:31:32;15.68;;;11.57;;
15466;SDS011;7834;49.452;11.056;2023-09-12T09:33:59;18.52;;;12.30;;
15466;SDS011;7834;49.452;11.056;2023-09-12T09:36:24;15.63;;;11.85;;
15466;SDS011;7834;49.452;11.056;2023-09-12T09:38:50;14.10;;;12.13;;
15466;SDS011;7834;49.452;11.056;2023-09-12T09:41:15;12.90;;;11.23;;
15466;SDS011;7834;49.452;11.056;2023-09-12T09:43:45;17.05;;;10.90;;
15466;SDS011;7834;49.452;11.056;2023-09-12T09:46:14;13.05;;;10.48;;
15466;SDS011;7834;49.452;11.056;2023-09-12T09:48:40;16.45;;;11.10;;
15466;SDS011;7834;49.452;11.056;2023-09-12T09:51:13;12.43;;;10.80;;
15466;SDS011;7834;49.452;11.056;2023-09-12T09:53:39;13.13;;;11.00;;
15466;SDS011;7834;49.452;11.056;2023-09-12T09:56:08;12.85;;;11.55;;
15466;SDS011;7834;49.452;11.056;2023-09-12T09:58:35;14.93;;;11.52;;
15466;SDS011;7834;49.452;11.056;2023-09-12T10:01:01;14.27;;;11.13;;
15466;SDS011;7834;49.452;11.056;2023-09-12T10:03:26;17.47;;;11.83;;
15466;SDS011;7834;49.452;11.056;2023-09-12T10:05:54;18.95;;;11.38;;
15466;SDS011;7834;49.452;11.056;2023-09-12T10:08:23;14.50;;;11.80;;
15466;SDS011;7834;49.452;11.056;2023-09-12T10:10:49;12.82;;;10.88;;
15466;SDS011;7834;49.452;11.056;2023-09-12T10:13:15;15.67;;;11.67;;
15466;SDS011;7834;49.452;11.056;2023-09-12T10:15:41;16.97;;;11.63;;
15466;SDS011;7834;49.452;11.056;2023-09-12T10:18:09;13.67;;;10.90;;
15466;SDS011;7834;49.452;11.056;2023-09-12T10:20:37;16.57;;;11.73;;
15466;SDS011;7834;49.452;11.056;2023-09-12T10:23:06;15.55;;;11.45;;
15466;SDS011;7834;49.452;11.056;2023-09-12T10:25:36;13.70;;;11.93;;
15466;SDS011;7834;49.452;11.056;2023-09-12T10:28:05;14.70;;;11.38;;
15466;SDS011;7834;49.452;11.056;2023-09-12T10:30:32;15.75;;;11.23;;
15466;SDS011;7834;49.452;11.056;2023-09-12T10:32:58;16.15;;;11.80;;
15466;SDS011;7834;49.452;11.056;2023-09-12T10:35:24;17.02;;;12.10;;
15466;SDS011;7834;49.452;11.056;2023-09-12T10:37:50;13.50;;;11.93;;
15466;SDS011;7834;49.452;11.056;2023-09-12T10:40:16;13.25;;;11.57;;
15466;SDS011;7834;49.452;11.056;2023-09-12T10:42:42;14.82;;;12.13;;
15466;SDS011;7834;49.452;11.056;2023-09-12T10:45:08;13.70;;;11.90;;
15466;SDS011;7834;49.452;11.056;2023-09-12T10:47:35;15.25;;;11.73;;
15466;SDS011;7834;49.452;11.056;2023-09-12T10:50:01;12.88;;;11.57;;
15466;SDS011;7834;49.452;11.056;2023-09-12T10:52:27;13.07;;;11.57;;
15466;SDS011;7834;49.452;11.056;2023-09-12T10:54:53;13.90;;;11.57;;
15466;SDS011;7834;49.452;11.056;2023-09-12T10:57:19;13.67;;;11.17;;
15466;SDS011;7834;49.452;11.056;2023-09-12T11:02:41;12.97;;;11.47;;
15466;SDS011;7834;49.452;11.056;2023-09-12T11:07:55;13.10;;;11.68;;
15466;SDS011;7834;49.452;11.056;2023-09-12T11:10:21;14.00;;;11.30;;
15466;SDS011;7834;49.452;11.056;2023-09-12T11:12:51;13.60;;;11.60;;
15466;SDS011;7834;49.452;11.056;2023-09-12T11:15:17;13.05;;;11.27;;
15466;SDS011;7834;49.452;11.056;2023-09-12T11:17:44;15.35;;;11.55;;
15466;SDS011;7834;49.452;11.056;2023-09-12T11:20:11;15.20;;;11.60;;
15466;SDS011;7834;49.452;11.056;2023-09-12T11:22:37;12.55;;;11.15;;
15466;SDS011;7834;49.452;11.056;2023-09-12T11:25:05;13.18;;;11.82;;
15466;SDS011;7834;49.452;11.056;2023-09-12T11:27:44;13.85;;;11.85;;
15466;SDS011;7834;49.452;11.056;2023-09-12T11:30:10;14.48;;;11.38;;
15466;SDS011;7834;49.452;11.056;2023-09-12T11:32:36;14.30;;;11.53;;
15466;SDS011;7834;49.452;11.056;2023-09-12T11:35:09;12.38;;;11.07;;
15466;SDS011;7834;49.452;11.056;2023-09-12T11:37:35;12.35;;;11.05;;
15466;SDS011;7834;49.452;11.056;2023-09-12T11:42:40;13.73;;;10.95;;
15466;SDS011;7834;49.452;11.056;2023-09-12T11:45:09;11.90;;;10.70;;
15466;SDS011;7834;49.452;11.056;2023-09-12T11:47:41;13.57;;;10.87;;
15466;SDS011;7834;49.452;11.056;2023-09-12T11:50:08;12.57;;;10.90;;
15466;SDS011;7834;49.452;11.056;2023-09-12T11:52:37;13.57;;;11.07;;
15466;SDS011;7834;49.452;11.056;2023-09-12T11:55:05;16.60;;;11.20;;
15466;SDS011;7834;49.452;11.056;2023-09-12T11:57:32;15.35;;;11.60;;
15466;SDS011;7834;49.452;11.056;2023-09-12T11:59:58;14.23;;;11.20;;
15466;SDS011;7834;49.452;11.056;2023-09-12T12:02:23;13.15;;;11.32;;
15466;SDS011;7834;49.452;11.056;2023-09-12T12:04:49;12.85;;;11.50;;
15466;SDS011;7834;49.452;11.056;2023-09-12T12:07:15;12.83;;;11.47;;
15466;SDS011;7834;49.452;11.056;2023-09-12T12:09:41;13.27;;;11.40;;
15466;SDS011;7834;49.452;11.056;2023-09-12T12:12:10;14.50;;;12.10;;
15466;SDS011;7834;49.452;11.056;2023-09-12T12:14:36;12.35;;;11.05;;
15466;SDS011;7834;49.452;11.056;2023-09-12T12:17:08;12.00;;;10.80;;
15466;SDS011;7834;49.452;11.056;2023-09-12T12:19:34;13.82;;;10.48;;
15466;SDS011;7834;49.452;11.056;2023-09-12T12:22:01;14.97;;;10.70;;
15466;SDS011;7834;49.452;11.056;2023-09-12T12:24:35;12.30;;;10.15;;
15466;SDS011;7834;49.452;11.056;2023-09-12T12:27:02;11.43;;;9.98;;
15466;SDS011;7834;49.452;11.056;2023-09-12T12:29:28;11.43;;;10.23;;
15466;SDS011;7834;49.452;11.056;2023-09-12T12:31:53;12.73;;;10.00;;
15466;SDS011;7834;49.452;11.056;2023-09-12T12:34:24;11.63;;;10.13;;
15466;SDS011;7834;49.452;11.056;2023-09-12T12:36:49;11.17;;;9.60;;
15466;SDS011;7834;49.452;11.056;2023-09-12T12:39:15;11.17;;;9.53;;
15466;SDS011;7834;49.452;11.056;2023-09-12T12:41:42;10.32;;;9.23;;
15466;SDS011;7834;49.452;11.056;2023-09-12T12:44:07;11.87;;;10.13;;
15466;SDS011;7834;49.452;11.056;2023-09-12T12:46:33;11.00;;;9.90;;
15466;SDS011;7834;49.452;11.056;2023-09-12T12:48:58;11.20;;;9.97;;
15466;SDS011;7834;49.452;11.056;2023-09-12T12:51:24;12.63;;;9.97;;
15466;SDS011;7834;49.452;11.056;2023-09-12T12:53:50;10.40;;;9.40;;
15466;SDS011;7834;49.452;11.056;2023-09-12T12:56:17;11.90;;;9.97;;
15466;SDS011;7834;49.452;11.056;2023-09-12T12:58:47;12.25;;;10.65;;
15466;SDS011;7834;49.452;11.056;2023-09-12T13:01:13;12.35;;;10.18;;
15466;SDS011;7834;49.452;11.056;2023-09-12T13:03:39;10.65;;;9.55;;
15466;SDS011;7834;49.452;11.056;2023-09-12T13:06:05;10.98;;;9.75;;
15466;SDS011;7834;49.452;11.056;2023-09-12T13:08:32;12.13;;;9.18;;
15466;SDS011;7834;49.452;11.056;2023-09-12T13:11:00;10.90;;;9.80;;
15466;SDS011;7834;49.452;11.056;2023-09-12T13:13:26;11.07;;;9.70;;
15466;SDS011;7834;49.452;11.056;2023-09-12T13:15:52;14.68;;;10.35;;
15466;SDS011;7834;49.452;11.056;2023-09-12T13:18:17;12.93;;;11.53;;
15466;SDS011;7834;49.452;11.056;2023-09-12T13:20:43;12.50;;;10.00;;
15466;SDS011;7834;49.452;11.056;2023-09-12T13:23:09;11.20;;;10.00;;
15466;SDS011;7834;49.452;11.056;2023-09-12T13:25:34;12.20;;;9.90;;
15466;SDS011;7834;49.452;11.056;2023-09-12T13:28:00;13.10;;;11.77;;
15466;SDS011;7834;49.452;11.056;2023-09-12T13:30:26;14.40;;;10.27;;
15466;SDS011;7834;49.452;11.056;2023-09-12T13:32:51;11.10;;;9.60;;
15466;SDS011;7834;49.452;11.056;2023-09-12T13:35:17;13.43;;;9.57;;
15466;SDS011;7834;49.452;11.056;2023-09-12T13:37:42;15.82;;;14.23;;
15466;SDS011;7834;49.452;11.056;2023-09-12T13:40:08;11.37;;;9.50;;
15466;SDS011;7834;49.452;11.056;2023-09-12T13:42:34;11.10;;;9.30;;
15466;SDS011;7834;49.452;11.056;2023-09-12T13:44:59;11.40;;;10.27;;
15466;SDS011;7834;49.452;11.056;2023-09-12T13:47:25;12.30;;;10.27;;
15466;SDS011;7834;49.452;11.056;2023-09-12T13:49:51;13.10;;;9.93;;
15466;SDS011;7834;49.452;11.056;2023-09-12T13:52:19;11.43;;;10.30;;
15466;SDS011;7834;49.452;11.056;2023-09-12T13:54:44;15.60;;;13.27;;
15466;SDS011;7834;49.452;11.056;2023-09-12T13:57:10;10.83;;;9.50;;
15466;SDS011;7834;49.452;11.056;2023-09-12T13:59:35;12.13;;;9.88;;
15466;SDS011;7834;49.452;11.056;2023-09-12T14:02:01;10.93;;;9.67;;
15466;SDS011;7834;49.452;11.056;2023-09-12T14:04:26;10.70;;;9.53;;
15466;SDS011;7834;49.452;11.056;2023-09-12T14:06:52;12.55;;;10.80;;
15466;SDS011;7834;49.452;11.056;2023-09-12T14:09:17;14.33;;;9.93;;
15466;SDS011;7834;49.452;11.056;2023-09-12T14:11:43;11.90;;;10.10;;
15466;SDS011;7834;49.452;11.056;2023-09-12T14:14:08;11.27;;;9.80;;
15466;SDS011;7834;49.452;11.056;2023-09-12T14:16:34;10.30;;;9.23;;
15466;SDS011;7834;49.452;11.056;2023-09-12T14:19:00;10.50;;;9.38;;
15466;SDS011;7834;49.452;11.056;2023-09-12T14:21:25;10.90;;;9.80;;
15466;SDS011;7834;49.452;11.056;2023-09-12T14:23:51;12.20;;;9.87;;
15466;SDS011;7834;49.452;11.056;2023-09-12T14:26:16;10.70;;;9.60;;
15466;SDS011;7834;49.452;11.056;2023-09-12T14:28:42;13.25;;;10.00;;